sensor_id;sensor_type;location;lat;lon;timestamp;temperature;humidity
18321;DHT22;54904;54.350;18.664;2024-03-06T00:01:23;9.10;99.90
18321;DHT22;54904;54.350;18.664;2024-03-06T00:03:52;9.10;99.90
18321;DHT22;54904;54.350;18.664;2024-03-06T00:06:19;9.10;99.90
18321;DHT22;54904;54.350;18.664;2024-03-06T00:08:46;9.10;99.90
18321;DHT22;54904;54.350;18.664;2024-03-06T00:11:13;9.10;99.90
18321;DHT22;54904;54.350;18.664;2024-03-06T00:13:41;9.10;99.90
18321;DHT22;54904;54.350;18.664;2024-03-06T00:16:08;9.10;99.90
18321;DHT22;54904;54.350;18.664;2024-03-06T00:18:35;9.20;99.90
18321;DHT22;54904;54.350;18.664;2024-03-06T00:21:04;9.20;99.90
18321;DHT22;54904;54.350;18.664;2024-03-06T00:23:31;9.20;99.90
18321;DHT22;54904;54.350;18.664;2024-03-06T00:25:58;9.20;99.90
18321;DHT22;54904;54.350;18.664;2024-03-06T00:28:25;9.20;99.90
18321;DHT22;54904;54.350;18.664;2024-03-06T00:30:52;9.20;99.90
18321;DHT22;54904;54.350;18.664;2024-03-06T00:33:20;9.20;99.90
18321;DHT22;54904;54.350;18.664;2024-03-06T00:35:47;9.20;99.90
18321;DHT22;54904;54.350;18.664;2024-03-06T00:38:15;9.20;99.90
18321;DHT22;54904;54.350;18.664;2024-03-06T00:40:43;9.20;99.90
18321;DHT22;54904;54.350;18.664;2024-03-06T00:43:10;9.30;99.90
18321;DHT22;54904;54.350;18.664;2024-03-06T00:45:37;9.30;99.90
18321;DHT22;54904;54.350;18.664;2024-03-06T00:48:05;9.30;99.90
18321;DHT22;54904;54.350;18.664;2024-03-06T00:50:32;9.30;99.90
18321;DHT22;54904;54.350;18.664;2024-03-06T00:52:59;9.30;99.90
18321;DHT22;54904;54.350;18.664;2024-03-06T00:55:27;9.30;99.90
18321;DHT22;54904;54.350;18.664;2024-03-06T00:57:55;9.30;99.90
18321;DHT22;54904;54.350;18.664;2024-03-06T01:00:22;9.30;99.90
18321;DHT22;54904;54.350;18.664;2024-03-06T01:02:49;9.30;99.90
18321;DHT22;54904;54.350;18.664;2024-03-06T01:05:17;9.30;99.90
18321;DHT22;54904;54.350;18.664;2024-03-06T01:07:44;9.30;99.90
18321;DHT22;54904;54.350;18.664;2024-03-06T01:10:11;9.30;99.90
18321;DHT22;54904;54.350;18.664;2024-03-06T01:12:40;9.30;99.90
18321;DHT22;54904;54.350;18.664;2024-03-06T01:15:09;9.30;99.90
18321;DHT22;54904;54.350;18.664;2024-03-06T01:17:37;9.30;99.90
18321;DHT22;54904;54.350;18.664;2024-03-06T01:20:04;9.30;99.90
18321;DHT22;54904;54.350;18.664;2024-03-06T01:22:33;9.30;99.90
18321;DHT22;54904;54.350;18.664;2024-03-06T01:25:01;9.30;99.90
18321;DHT22;54904;54.350;18.664;2024-03-06T01:27:28;9.40;99.90
18321;DHT22;54904;54.350;18.664;2024-03-06T01:29:57;9.40;99.90
18321;DHT22;54904;54.350;18.664;2024-03-06T01:32:24;9.40;99.90
18321;DHT22;54904;54.350;18.664;2024-03-06T01:34:51;9.40;99.90
18321;DHT22;54904;54.350;18.664;2024-03-06T01:37:19;9.40;99.90
18321;DHT22;54904;54.350;18.664;2024-03-06T01:39:46;9.40;99.90
18321;DHT22;54904;54.350;18.664;2024-03-06T01:42:13;9.40;99.90
18321;DHT22;54904;54.350;18.664;2024-03-06T01:44:40;9.40;99.90
18321;DHT22;54904;54.350;18.664;2024-03-06T01:47:08;9.40;99.90
18321;DHT22;54904;54.350;18.664;2024-03-06T01:49:36;9.40;99.90
18321;DHT22;54904;54.350;18.664;2024-03-06T01:52:03;9.40;99.90
18321;DHT22;54904;54.350;18.664;2024-03-06T01:54:30;9.40;99.90
18321;DHT22;54904;54.350;18.664;2024-03-06T01:56:59;9.40;99.90
18321;DHT22;54904;54.350;18.664;2024-03-06T01:59:28;9.30;99.90
18321;DHT22;54904;54.350;18.664;2024-03-06T02:01:55;9.30;99.90
18321;DHT22;54904;54.350;18.664;2024-03-06T02:04:25;9.30;99.90
18321;DHT22;54904;54.350;18.664;2024-03-06T02:06:54;9.30;99.90
18321;DHT22;54904;54.350;18.664;2024-03-06T02:09:21;9.30;99.90
18321;DHT22;54904;54.350;18.664;2024-03-06T02:11:50;9.20;99.90
18321;DHT22;54904;54.350;18.664;2024-03-06T02:14:17;9.20;99.90
18321;DHT22;54904;54.350;18.664;2024-03-06T02:16:43;9.20;99.90
18321;DHT22;54904;54.350;18.664;2024-03-06T02:19:10;9.20;99.90
18321;DHT22;54904;54.350;18.664;2024-03-06T02:21:39;9.20;99.90
18321;DHT22;54904;54.350;18.664;2024-03-06T02:24:06;9.20;99.90
18321;DHT22;54904;54.350;18.664;2024-03-06T02:26:34;9.10;99.90
18321;DHT22;54904;54.350;18.664;2024-03-06T02:29:01;9.10;99.90
18321;DHT22;54904;54.350;18.664;2024-03-06T02:31:28;9.10;99.90
18321;DHT22;54904;54.350;18.664;2024-03-06T02:33:55;9.10;99.90
18321;DHT22;54904;54.350;18.664;2024-03-06T02:36:24;9.10;99.90
18321;DHT22;54904;54.350;18.664;2024-03-06T02:38:53;9.10;99.90
18321;DHT22;54904;54.350;18.664;2024-03-06T02:41:20;9.10;99.90
18321;DHT22;54904;54.350;18.664;2024-03-06T02:43:47;9.10;99.90
18321;DHT22;54904;54.350;18.664;2024-03-06T02:46:14;9.10;99.90
18321;DHT22;54904;54.350;18.664;2024-03-06T02:48:41;9.10;99.90
18321;DHT22;54904;54.350;18.664;2024-03-06T02:51:08;9.10;99.90
18321;DHT22;54904;54.350;18.664;2024-03-06T02:53:35;9.10;99.90
18321;DHT22;54904;54.350;18.664;2024-03-06T02:56:05;9.10;99.90
18321;DHT22;54904;54.350;18.664;2024-03-06T02:58:32;9.20;99.90
18321;DHT22;54904;54.350;18.664;2024-03-06T03:01:01;9.20;99.90
18321;DHT22;54904;54.350;18.664;2024-03-06T03:03:28;9.20;99.90
18321;DHT22;54904;54.350;18.664;2024-03-06T03:05:55;9.20;99.90
18321;DHT22;54904;54.350;18.664;2024-03-06T03:08:22;9.20;99.90
18321;DHT22;54904;54.350;18.664;2024-03-06T03:10:49;9.30;99.90
18321;DHT22;54904;54.350;18.664;2024-03-06T03:13:18;9.30;99.90
18321;DHT22;54904;54.350;18.664;2024-03-06T03:15:45;9.30;99.90
18321;DHT22;54904;54.350;18.664;2024-03-06T03:18:13;9.30;99.90
18321;DHT22;54904;54.350;18.664;2024-03-06T03:20:40;9.30;99.90
18321;DHT22;54904;54.350;18.664;2024-03-06T03:23:08;9.30;99.90
18321;DHT22;54904;54.350;18.664;2024-03-06T03:25:37;9.30;99.90
18321;DHT22;54904;54.350;18.664;2024-03-06T03:28:05;9.30;99.90
18321;DHT22;54904;54.350;18.664;2024-03-06T03:30:33;9.30;99.90
18321;DHT22;54904;54.350;18.664;2024-03-06T03:33:01;9.30;99.90
18321;DHT22;54904;54.350;18.664;2024-03-06T03:35:28;9.30;99.90
18321;DHT22;54904;54.350;18.664;2024-03-06T03:37:57;9.20;99.90
18321;DHT22;54904;54.350;18.664;2024-03-06T03:40:24;9.20;99.90
18321;DHT22;54904;54.350;18.664;2024-03-06T03:42:51;9.20;99.90
18321;DHT22;54904;54.350;18.664;2024-03-06T03:45:18;9.20;99.90
18321;DHT22;54904;54.350;18.664;2024-03-06T03:47:47;9.10;99.90
18321;DHT22;54904;54.350;18.664;2024-03-06T03:50:14;9.10;99.90
18321;DHT22;54904;54.350;18.664;2024-03-06T03:52:43;9.10;99.90
18321;DHT22;54904;54.350;18.664;2024-03-06T03:55:10;9.00;99.90
18321;DHT22;54904;54.350;18.664;2024-03-06T03:57:37;9.00;99.90
18321;DHT22;54904;54.350;18.664;2024-03-06T04:00:05;9.00;99.90
18321;DHT22;54904;54.350;18.664;2024-03-06T04:02:37;9.00;99.90
18321;DHT22;54904;54.350;18.664;2024-03-06T04:05:07;9.00;99.90
18321;DHT22;54904;54.350;18.664;2024-03-06T04:07:35;8.90;99.90
18321;DHT22;54904;54.350;18.664;2024-03-06T04:10:03;8.90;99.90
18321;DHT22;54904;54.350;18.664;2024-03-06T04:12:30;8.90;99.90
18321;DHT22;54904;54.350;18.664;2024-03-06T04:14:58;8.90;99.90
18321;DHT22;54904;54.350;18.664;2024-03-06T04:17:25;8.90;99.90
18321;DHT22;54904;54.350;18.664;2024-03-06T04:19:52;8.90;99.90
18321;DHT22;54904;54.350;18.664;2024-03-06T04:22:22;8.90;99.90
18321;DHT22;54904;54.350;18.664;2024-03-06T04:24:49;8.90;99.90
18321;DHT22;54904;54.350;18.664;2024-03-06T04:27:17;8.90;99.90
18321;DHT22;54904;54.350;18.664;2024-03-06T04:29:44;8.80;99.90
18321;DHT22;54904;54.350;18.664;2024-03-06T04:32:12;8.80;99.90
18321;DHT22;54904;54.350;18.664;2024-03-06T04:34:40;8.80;99.90
18321;DHT22;54904;54.350;18.664;2024-03-06T04:37:07;8.80;99.90
18321;DHT22;54904;54.350;18.664;2024-03-06T04:39:35;8.80;99.90
18321;DHT22;54904;54.350;18.664;2024-03-06T04:42:02;8.80;99.90
18321;DHT22;54904;54.350;18.664;2024-03-06T04:44:33;8.70;99.90
18321;DHT22;54904;54.350;18.664;2024-03-06T04:47:01;8.70;99.90
18321;DHT22;54904;54.350;18.664;2024-03-06T04:49:28;8.70;99.90
18321;DHT22;54904;54.350;18.664;2024-03-06T04:51:55;8.70;99.90
18321;DHT22;54904;54.350;18.664;2024-03-06T04:54:22;8.70;99.90
18321;DHT22;54904;54.350;18.664;2024-03-06T04:56:53;8.70;99.90
18321;DHT22;54904;54.350;18.664;2024-03-06T04:59:20;8.70;99.90
18321;DHT22;54904;54.350;18.664;2024-03-06T05:01:47;8.70;99.90
18321;DHT22;54904;54.350;18.664;2024-03-06T05:04:15;8.70;99.90
18321;DHT22;54904;54.350;18.664;2024-03-06T05:06:42;8.70;99.90
18321;DHT22;54904;54.350;18.664;2024-03-06T05:09:09;8.70;99.90
18321;DHT22;54904;54.350;18.664;2024-03-06T05:11:37;8.70;99.90
18321;DHT22;54904;54.350;18.664;2024-03-06T05:14:06;8.60;99.90
18321;DHT22;54904;54.350;18.664;2024-03-06T05:16:33;8.60;99.90
18321;DHT22;54904;54.350;18.664;2024-03-06T05:19:00;8.60;99.90
18321;DHT22;54904;54.350;18.664;2024-03-06T05:21:27;8.60;99.90
18321;DHT22;54904;54.350;18.664;2024-03-06T05:23:55;8.60;99.90
18321;DHT22;54904;54.350;18.664;2024-03-06T05:26:22;8.60;99.90
18321;DHT22;54904;54.350;18.664;2024-03-06T05:28:49;8.60;99.90
18321;DHT22;54904;54.350;18.664;2024-03-06T05:31:18;8.60;99.90
18321;DHT22;54904;54.350;18.664;2024-03-06T05:33:47;8.50;99.90
18321;DHT22;54904;54.350;18.664;2024-03-06T05:36:15;8.50;99.90
18321;DHT22;54904;54.350;18.664;2024-03-06T05:38:43;8.50;99.90
18321;DHT22;54904;54.350;18.664;2024-03-06T05:41:10;8.50;99.90
18321;DHT22;54904;54.350;18.664;2024-03-06T05:43:37;8.50;99.90
18321;DHT22;54904;54.350;18.664;2024-03-06T05:46:06;8.50;99.90
18321;DHT22;54904;54.350;18.664;2024-03-06T05:48:35;8.50;99.90
18321;DHT22;54904;54.350;18.664;2024-03-06T05:51:02;8.50;99.90
18321;DHT22;54904;54.350;18.664;2024-03-06T05:53:29;8.50;99.90
18321;DHT22;54904;54.350;18.664;2024-03-06T05:55:56;8.50;99.90
18321;DHT22;54904;54.350;18.664;2024-03-06T05:58:23;8.60;99.90
18321;DHT22;54904;54.350;18.664;2024-03-06T06:00:51;8.60;99.90
18321;DHT22;54904;54.350;18.664;2024-03-06T06:03:18;8.50;99.90
18321;DHT22;54904;54.350;18.664;2024-03-06T06:05:46;8.50;99.90
18321;DHT22;54904;54.350;18.664;2024-03-06T06:08:13;8.50;99.90
18321;DHT22;54904;54.350;18.664;2024-03-06T06:10:40;8.50;99.90
18321;DHT22;54904;54.350;18.664;2024-03-06T06:13:08;8.50;99.90
18321;DHT22;54904;54.350;18.664;2024-03-06T06:15:35;8.50;99.90
18321;DHT22;54904;54.350;18.664;2024-03-06T06:18:02;8.50;99.90
18321;DHT22;54904;54.350;18.664;2024-03-06T06:20:29;8.50;99.90
18321;DHT22;54904;54.350;18.664;2024-03-06T06:22:58;8.50;99.90
18321;DHT22;54904;54.350;18.664;2024-03-06T06:25:25;8.50;99.90
18321;DHT22;54904;54.350;18.664;2024-03-06T06:27:52;8.50;99.90
18321;DHT22;54904;54.350;18.664;2024-03-06T06:30:19;8.50;99.90
18321;DHT22;54904;54.350;18.664;2024-03-06T06:32:46;8.50;99.90
18321;DHT22;54904;54.350;18.664;2024-03-06T06:35:14;8.50;99.90
18321;DHT22;54904;54.350;18.664;2024-03-06T06:37:42;8.40;99.90
18321;DHT22;54904;54.350;18.664;2024-03-06T06:40:12;8.40;99.90
18321;DHT22;54904;54.350;18.664;2024-03-06T06:42:44;8.40;99.90
18321;DHT22;54904;54.350;18.664;2024-03-06T06:45:13;8.40;99.90
18321;DHT22;54904;54.350;18.664;2024-03-06T06:47:40;8.40;99.90
18321;DHT22;54904;54.350;18.664;2024-03-06T06:50:08;8.40;99.90
18321;DHT22;54904;54.350;18.664;2024-03-06T06:52:35;8.30;99.90
18321;DHT22;54904;54.350;18.664;2024-03-06T06:55:02;8.30;99.90
18321;DHT22;54904;54.350;18.664;2024-03-06T06:57:31;8.20;99.90
18321;DHT22;54904;54.350;18.664;2024-03-06T07:00:00;8.30;99.90
18321;DHT22;54904;54.350;18.664;2024-03-06T07:02:28;8.30;99.90
18321;DHT22;54904;54.350;18.664;2024-03-06T07:04:56;8.40;99.90
18321;DHT22;54904;54.350;18.664;2024-03-06T07:07:23;8.30;99.90
18321;DHT22;54904;54.350;18.664;2024-03-06T07:09:50;8.40;99.90
18321;DHT22;54904;54.350;18.664;2024-03-06T07:12:17;8.40;99.90
18321;DHT22;54904;54.350;18.664;2024-03-06T07:14:46;8.50;99.90
18321;DHT22;54904;54.350;18.664;2024-03-06T07:17:13;8.50;99.90
18321;DHT22;54904;54.350;18.664;2024-03-06T07:19:40;8.50;99.90
18321;DHT22;54904;54.350;18.664;2024-03-06T07:22:07;8.60;99.90
18321;DHT22;54904;54.350;18.664;2024-03-06T07:24:34;8.80;99.90
18321;DHT22;54904;54.350;18.664;2024-03-06T07:27:02;8.70;99.90
18321;DHT22;54904;54.350;18.664;2024-03-06T07:29:29;8.80;99.90
18321;DHT22;54904;54.350;18.664;2024-03-06T07:31:58;8.80;99.90
18321;DHT22;54904;54.350;18.664;2024-03-06T07:34:26;8.90;99.90
18321;DHT22;54904;54.350;18.664;2024-03-06T07:36:53;8.90;99.90
18321;DHT22;54904;54.350;18.664;2024-03-06T07:39:20;9.10;99.90
18321;DHT22;54904;54.350;18.664;2024-03-06T07:41:48;9.10;99.90
18321;DHT22;54904;54.350;18.664;2024-03-06T07:44:15;9.10;99.90
18321;DHT22;54904;54.350;18.664;2024-03-06T07:46:42;9.20;99.90
18321;DHT22;54904;54.350;18.664;2024-03-06T07:49:10;9.30;99.90
18321;DHT22;54904;54.350;18.664;2024-03-06T07:51:38;9.40;99.90
18321;DHT22;54904;54.350;18.664;2024-03-06T07:54:06;9.50;99.90
18321;DHT22;54904;54.350;18.664;2024-03-06T07:56:33;9.60;99.90
18321;DHT22;54904;54.350;18.664;2024-03-06T07:59:01;9.90;99.90
18321;DHT22;54904;54.350;18.664;2024-03-06T08:01:28;10.70;99.90
18321;DHT22;54904;54.350;18.664;2024-03-06T08:03:56;11.70;99.40
18321;DHT22;54904;54.350;18.664;2024-03-06T08:06:24;12.60;98.00
18321;DHT22;54904;54.350;18.664;2024-03-06T08:08:52;13.30;97.20
18321;DHT22;54904;54.350;18.664;2024-03-06T08:11:19;14.00;96.00
18321;DHT22;54904;54.350;18.664;2024-03-06T08:13:49;14.20;95.10
18321;DHT22;54904;54.350;18.664;2024-03-06T08:16:16;14.60;93.70
18321;DHT22;54904;54.350;18.664;2024-03-06T08:18:44;14.70;92.80
18321;DHT22;54904;54.350;18.664;2024-03-06T08:21:11;14.70;92.30
18321;DHT22;54904;54.350;18.664;2024-03-06T08:23:39;14.60;92.00
18321;DHT22;54904;54.350;18.664;2024-03-06T08:26:07;14.90;90.60
18321;DHT22;54904;54.350;18.664;2024-03-06T08:28:34;15.40;88.30
18321;DHT22;54904;54.350;18.664;2024-03-06T08:31:01;15.80;87.00
18321;DHT22;54904;54.350;18.664;2024-03-06T08:33:28;16.40;86.70
18321;DHT22;54904;54.350;18.664;2024-03-06T08:35:55;16.70;85.50
18321;DHT22;54904;54.350;18.664;2024-03-06T08:38:23;16.80;84.90
18321;DHT22;54904;54.350;18.664;2024-03-06T08:40:52;17.00;83.60
18321;DHT22;54904;54.350;18.664;2024-03-06T08:43:19;17.10;83.10
18321;DHT22;54904;54.350;18.664;2024-03-06T08:45:46;17.00;81.00
18321;DHT22;54904;54.350;18.664;2024-03-06T08:48:13;16.80;80.60
18321;DHT22;54904;54.350;18.664;2024-03-06T08:50:40;16.60;80.30
18321;DHT22;54904;54.350;18.664;2024-03-06T08:53:07;16.80;80.40
18321;DHT22;54904;54.350;18.664;2024-03-06T08:55:35;16.70;78.80
18321;DHT22;54904;54.350;18.664;2024-03-06T08:58:04;16.70;80.10
18321;DHT22;54904;54.350;18.664;2024-03-06T09:00:31;16.90;79.40
18321;DHT22;54904;54.350;18.664;2024-03-06T09:02:58;17.10;78.00
18321;DHT22;54904;54.350;18.664;2024-03-06T09:05:26;17.00;77.00
18321;DHT22;54904;54.350;18.664;2024-03-06T09:07:53;17.10;76.00
18321;DHT22;54904;54.350;18.664;2024-03-06T09:10:20;17.10;74.20
18321;DHT22;54904;54.350;18.664;2024-03-06T09:12:47;16.90;74.50
18321;DHT22;54904;54.350;18.664;2024-03-06T09:15:16;16.40;75.20
18321;DHT22;54904;54.350;18.664;2024-03-06T09:17:43;16.00;75.70
18321;DHT22;54904;54.350;18.664;2024-03-06T09:20:12;15.70;75.60
18321;DHT22;54904;54.350;18.664;2024-03-06T09:22:39;15.50;75.80
18321;DHT22;54904;54.350;18.664;2024-03-06T09:25:07;15.20;76.40
18321;DHT22;54904;54.350;18.664;2024-03-06T09:27:35;14.80;77.50
18321;DHT22;54904;54.350;18.664;2024-03-06T09:30:02;14.70;77.80
18321;DHT22;54904;54.350;18.664;2024-03-06T09:32:31;14.70;78.00
18321;DHT22;54904;54.350;18.664;2024-03-06T09:34:58;14.70;78.00
18321;DHT22;54904;54.350;18.664;2024-03-06T09:37:26;14.40;77.90
18321;DHT22;54904;54.350;18.664;2024-03-06T09:39:53;14.30;78.60
18321;DHT22;54904;54.350;18.664;2024-03-06T09:42:20;14.20;77.90
18321;DHT22;54904;54.350;18.664;2024-03-06T09:44:48;14.20;78.50
18321;DHT22;54904;54.350;18.664;2024-03-06T09:47:19;14.10;78.30
18321;DHT22;54904;54.350;18.664;2024-03-06T09:49:50;14.10;78.50
18321;DHT22;54904;54.350;18.664;2024-03-06T09:52:19;13.90;78.70
18321;DHT22;54904;54.350;18.664;2024-03-06T09:54:47;14.10;78.60
18321;DHT22;54904;54.350;18.664;2024-03-06T09:57:15;14.50;78.70
18321;DHT22;54904;54.350;18.664;2024-03-06T09:59:42;14.80;78.00
18321;DHT22;54904;54.350;18.664;2024-03-06T10:02:36;15.20;77.30
18321;DHT22;54904;54.350;18.664;2024-03-06T10:05:09;15.70;76.90
18321;DHT22;54904;54.350;18.664;2024-03-06T10:07:47;16.10;74.30
18321;DHT22;54904;54.350;18.664;2024-03-06T10:10:15;16.50;73.70
18321;DHT22;54904;54.350;18.664;2024-03-06T10:12:44;17.00;72.70
18321;DHT22;54904;54.350;18.664;2024-03-06T10:15:13;17.40;71.60
18321;DHT22;54904;54.350;18.664;2024-03-06T10:17:41;18.20;71.20
18321;DHT22;54904;54.350;18.664;2024-03-06T10:20:22;18.90;70.00
18321;DHT22;54904;54.350;18.664;2024-03-06T10:22:50;20.10;69.10
18321;DHT22;54904;54.350;18.664;2024-03-06T10:25:21;21.50;65.70
18321;DHT22;54904;54.350;18.664;2024-03-06T10:28:05;22.60;61.80
18321;DHT22;54904;54.350;18.664;2024-03-06T10:30:33;23.50;56.70
18321;DHT22;54904;54.350;18.664;2024-03-06T10:33:02;24.20;54.50
18321;DHT22;54904;54.350;18.664;2024-03-06T10:35:31;24.80;53.50
18321;DHT22;54904;54.350;18.664;2024-03-06T10:38:00;25.40;52.20
18321;DHT22;54904;54.350;18.664;2024-03-06T10:40:28;25.80;50.60
18321;DHT22;54904;54.350;18.664;2024-03-06T10:42:58;26.40;50.40
18321;DHT22;54904;54.350;18.664;2024-03-06T10:45:32;26.80;49.90
18321;DHT22;54904;54.350;18.664;2024-03-06T10:48:02;27.20;47.10
18321;DHT22;54904;54.350;18.664;2024-03-06T10:50:32;27.50;46.20
18321;DHT22;54904;54.350;18.664;2024-03-06T10:53:00;27.60;44.50
18321;DHT22;54904;54.350;18.664;2024-03-06T10:55:30;28.00;44.30
18321;DHT22;54904;54.350;18.664;2024-03-06T10:58:00;28.40;44.50
18321;DHT22;54904;54.350;18.664;2024-03-06T11:00:27;28.60;43.50
18321;DHT22;54904;54.350;18.664;2024-03-06T11:02:56;28.50;42.70
18321;DHT22;54904;54.350;18.664;2024-03-06T11:05:24;28.50;42.40
18321;DHT22;54904;54.350;18.664;2024-03-06T11:07:53;28.70;42.20
18321;DHT22;54904;54.350;18.664;2024-03-06T11:10:31;28.70;42.00
18321;DHT22;54904;54.350;18.664;2024-03-06T11:12:58;28.10;41.30
18321;DHT22;54904;54.350;18.664;2024-03-06T11:15:26;27.40;41.70
18321;DHT22;54904;54.350;18.664;2024-03-06T11:17:53;26.70;40.60
18321;DHT22;54904;54.350;18.664;2024-03-06T11:20:21;26.40;41.90
18321;DHT22;54904;54.350;18.664;2024-03-06T11:23:09;26.10;42.50
18321;DHT22;54904;54.350;18.664;2024-03-06T11:25:55;25.60;42.00
18321;DHT22;54904;54.350;18.664;2024-03-06T11:28:25;24.90;42.00
18321;DHT22;54904;54.350;18.664;2024-03-06T11:30:57;24.40;43.00
18321;DHT22;54904;54.350;18.664;2024-03-06T11:33:29;23.90;43.80
18321;DHT22;54904;54.350;18.664;2024-03-06T11:36:15;23.20;44.20
18321;DHT22;54904;54.350;18.664;2024-03-06T11:38:51;22.60;45.00
18321;DHT22;54904;54.350;18.664;2024-03-06T11:41:20;22.20;45.30
18321;DHT22;54904;54.350;18.664;2024-03-06T11:43:48;22.00;45.70
18321;DHT22;54904;54.350;18.664;2024-03-06T11:46:19;21.80;45.90
18321;DHT22;54904;54.350;18.664;2024-03-06T11:48:52;21.30;45.60
18321;DHT22;54904;54.350;18.664;2024-03-06T11:51:21;20.90;46.20
18321;DHT22;54904;54.350;18.664;2024-03-06T11:53:52;20.60;47.10
18321;DHT22;54904;54.350;18.664;2024-03-06T11:56:21;20.30;46.90
18321;DHT22;54904;54.350;18.664;2024-03-06T11:58:48;19.90;47.00
18321;DHT22;54904;54.350;18.664;2024-03-06T12:01:15;19.50;47.50
18321;DHT22;54904;54.350;18.664;2024-03-06T12:03:44;19.40;47.90
18321;DHT22;54904;54.350;18.664;2024-03-06T12:06:11;19.40;47.90
18321;DHT22;54904;54.350;18.664;2024-03-06T12:08:39;19.30;48.80
18321;DHT22;54904;54.350;18.664;2024-03-06T12:11:08;19.40;48.00
18321;DHT22;54904;54.350;18.664;2024-03-06T12:13:35;19.60;47.50
18321;DHT22;54904;54.350;18.664;2024-03-06T12:16:06;19.80;47.40
18321;DHT22;54904;54.350;18.664;2024-03-06T12:18:33;20.20;47.20
18321;DHT22;54904;54.350;18.664;2024-03-06T12:21:01;20.40;46.70
18321;DHT22;54904;54.350;18.664;2024-03-06T12:23:29;20.20;46.10
18321;DHT22;54904;54.350;18.664;2024-03-06T12:26:04;20.20;46.40
18321;DHT22;54904;54.350;18.664;2024-03-06T12:28:33;20.10;46.30
18321;DHT22;54904;54.350;18.664;2024-03-06T12:31:02;20.20;46.60
18321;DHT22;54904;54.350;18.664;2024-03-06T12:33:29;20.20;46.50
18321;DHT22;54904;54.350;18.664;2024-03-06T12:36:03;20.20;46.30
18321;DHT22;54904;54.350;18.664;2024-03-06T12:38:31;20.40;46.00
18321;DHT22;54904;54.350;18.664;2024-03-06T12:40:59;20.60;46.00
18321;DHT22;54904;54.350;18.664;2024-03-06T12:43:26;21.20;45.60
18321;DHT22;54904;54.350;18.664;2024-03-06T12:45:56;21.90;45.10
18321;DHT22;54904;54.350;18.664;2024-03-06T12:48:24;22.70;44.70
18321;DHT22;54904;54.350;18.664;2024-03-06T12:50:51;23.50;44.20
18321;DHT22;54904;54.350;18.664;2024-03-06T12:53:20;24.10;43.30
18321;DHT22;54904;54.350;18.664;2024-03-06T12:55:47;24.40;42.70
18321;DHT22;54904;54.350;18.664;2024-03-06T12:58:14;24.30;42.20
18321;DHT22;54904;54.350;18.664;2024-03-06T13:00:42;24.20;42.00
18321;DHT22;54904;54.350;18.664;2024-03-06T13:03:10;24.50;41.60
18321;DHT22;54904;54.350;18.664;2024-03-06T13:05:38;24.50;41.60
18321;DHT22;54904;54.350;18.664;2024-03-06T13:08:06;24.60;41.40
18321;DHT22;54904;54.350;18.664;2024-03-06T13:10:33;24.80;41.40
18321;DHT22;54904;54.350;18.664;2024-03-06T13:13:01;25.30;41.10
18321;DHT22;54904;54.350;18.664;2024-03-06T13:15:28;25.60;40.60
18321;DHT22;54904;54.350;18.664;2024-03-06T13:17:55;25.80;40.40
18321;DHT22;54904;54.350;18.664;2024-03-06T13:20:24;25.90;40.40
18321;DHT22;54904;54.350;18.664;2024-03-06T13:22:51;25.80;39.80
18321;DHT22;54904;54.350;18.664;2024-03-06T13:25:18;25.70;39.70
18321;DHT22;54904;54.350;18.664;2024-03-06T13:27:46;25.60;39.70
18321;DHT22;54904;54.350;18.664;2024-03-06T13:30:13;25.10;39.40
18321;DHT22;54904;54.350;18.664;2024-03-06T13:32:41;24.10;39.80
18321;DHT22;54904;54.350;18.664;2024-03-06T13:35:12;22.90;40.20
18321;DHT22;54904;54.350;18.664;2024-03-06T13:37:40;22.00;40.90
18321;DHT22;54904;54.350;18.664;2024-03-06T13:40:09;20.60;41.80
18321;DHT22;54904;54.350;18.664;2024-03-06T13:42:39;19.60;42.90
18321;DHT22;54904;54.350;18.664;2024-03-06T13:45:07;18.70;43.90
18321;DHT22;54904;54.350;18.664;2024-03-06T13:47:37;17.90;44.80
18321;DHT22;54904;54.350;18.664;2024-03-06T13:50:07;17.30;45.70
18321;DHT22;54904;54.350;18.664;2024-03-06T13:52:36;16.80;46.10
18321;DHT22;54904;54.350;18.664;2024-03-06T13:55:06;16.50;46.40
18321;DHT22;54904;54.350;18.664;2024-03-06T13:57:34;16.20;46.80
18321;DHT22;54904;54.350;18.664;2024-03-06T14:00:02;15.80;47.00
18321;DHT22;54904;54.350;18.664;2024-03-06T14:02:37;15.60;47.30
18321;DHT22;54904;54.350;18.664;2024-03-06T14:05:05;15.50;47.60
18321;DHT22;54904;54.350;18.664;2024-03-06T14:07:34;15.30;47.80
18321;DHT22;54904;54.350;18.664;2024-03-06T14:10:01;15.10;48.20
18321;DHT22;54904;54.350;18.664;2024-03-06T14:12:30;14.80;48.80
18321;DHT22;54904;54.350;18.664;2024-03-06T14:14:57;14.50;49.00
18321;DHT22;54904;54.350;18.664;2024-03-06T14:17:24;14.30;49.50
18321;DHT22;54904;54.350;18.664;2024-03-06T14:19:51;14.20;49.70
18321;DHT22;54904;54.350;18.664;2024-03-06T14:22:18;14.10;50.10
18321;DHT22;54904;54.350;18.664;2024-03-06T14:24:45;14.00;50.50
18321;DHT22;54904;54.350;18.664;2024-03-06T14:27:13;13.90;50.90
18321;DHT22;54904;54.350;18.664;2024-03-06T14:29:42;13.80;51.20
18321;DHT22;54904;54.350;18.664;2024-03-06T14:32:09;13.60;51.70
18321;DHT22;54904;54.350;18.664;2024-03-06T14:34:36;13.40;52.00
18321;DHT22;54904;54.350;18.664;2024-03-06T14:37:03;13.30;52.50
18321;DHT22;54904;54.350;18.664;2024-03-06T14:39:30;13.10;52.80
18321;DHT22;54904;54.350;18.664;2024-03-06T14:41:58;13.00;53.10
18321;DHT22;54904;54.350;18.664;2024-03-06T14:44:25;12.90;53.70
18321;DHT22;54904;54.350;18.664;2024-03-06T14:46:53;12.80;54.00
18321;DHT22;54904;54.350;18.664;2024-03-06T14:49:21;12.60;54.30
18321;DHT22;54904;54.350;18.664;2024-03-06T14:51:48;12.60;54.60
18321;DHT22;54904;54.350;18.664;2024-03-06T14:54:15;12.50;54.90
18321;DHT22;54904;54.350;18.664;2024-03-06T14:56:43;12.40;55.00
18321;DHT22;54904;54.350;18.664;2024-03-06T14:59:10;12.30;55.40
18321;DHT22;54904;54.350;18.664;2024-03-06T15:01:37;12.30;55.70
18321;DHT22;54904;54.350;18.664;2024-03-06T15:04:06;12.30;56.10
18321;DHT22;54904;54.350;18.664;2024-03-06T15:06:33;12.20;56.40
18321;DHT22;54904;54.350;18.664;2024-03-06T15:09:00;12.20;56.70
18321;DHT22;54904;54.350;18.664;2024-03-06T15:11:29;12.10;56.90
18321;DHT22;54904;54.350;18.664;2024-03-06T15:13:58;12.00;57.00
18321;DHT22;54904;54.350;18.664;2024-03-06T15:16:26;12.00;57.50
18321;DHT22;54904;54.350;18.664;2024-03-06T15:18:53;11.90;57.70
18321;DHT22;54904;54.350;18.664;2024-03-06T15:21:24;11.90;57.70
18321;DHT22;54904;54.350;18.664;2024-03-06T15:23:51;11.90;57.70
18321;DHT22;54904;54.350;18.664;2024-03-06T15:26:19;11.90;57.70
18321;DHT22;54904;54.350;18.664;2024-03-06T15:28:46;11.90;57.90